createdAt,value
2022-11-30T00:02:44.575Z,100404.59
2022-11-30T00:06:47.616Z,100403.56
2022-11-30T00:10:50.600Z,100400.06
2022-11-30T00:14:53.534Z,100400.97
2022-11-30T00:18:57.940Z,100401.78
2022-11-30T00:23:01.132Z,100403.44
2022-11-30T00:27:04.249Z,100403.94
2022-11-30T00:31:09.256Z,100410.56
2022-11-30T00:35:13.730Z,100412.13
2022-11-30T00:39:16.881Z,100407.50
2022-11-30T00:43:19.968Z,100414.28
2022-11-30T00:47:22.921Z,100412.97
2022-11-30T00:51:27.362Z,100419.50
2022-11-30T00:55:31.857Z,100414.19
2022-11-30T00:59:34.861Z,100412.13
2022-11-30T01:03:37.997Z,100412.06
2022-11-30T01:07:42.334Z,100415.47
2022-11-30T01:11:45.340Z,100421.41
2022-11-30T01:15:48.457Z,100424.91
2022-11-30T01:19:51.686Z,100419.97
2022-11-30T01:23:56.681Z,100422.72
2022-11-30T01:27:59.608Z,100437.44
2022-11-30T01:32:02.515Z,100431.56
2022-11-30T01:36:07.681Z,100424.84
2022-11-30T01:40:13.482Z,100419.09
2022-11-30T01:44:50.291Z,100407.03
2022-11-30T01:48:59.454Z,100421.84
2022-11-30T01:53:03.377Z,100420.34
2022-11-30T01:57:13.504Z,100417.19
2022-11-30T02:01:16.507Z,100429.50
2022-11-30T02:05:19.912Z,100416.50
2022-11-30T02:09:24.714Z,100418.28
2022-11-30T02:14:03.509Z,100415.69
2022-11-30T02:18:13.766Z,100427.13
2022-11-30T02:22:32.490Z,100421.91
2022-11-30T02:26:55.836Z,100429.78
2022-11-30T02:31:04.432Z,100436.63
2022-11-30T02:35:10.453Z,100435.63
2022-11-30T02:39:13.492Z,100431.28
2022-11-30T02:43:18.554Z,100437.50
2022-11-30T02:47:26.658Z,100436.78
2022-11-30T02:51:33.120Z,100445.38
2022-11-30T02:55:36.415Z,100437.13
2022-11-30T02:59:40.608Z,100437.59
2022-11-30T03:03:44.968Z,100430.41
2022-11-30T03:07:47.979Z,100430.47
2022-11-30T03:11:51.408Z,100434.16
2022-11-30T03:15:54.409Z,100429.97
2022-11-30T03:19:58.738Z,100432.78
2022-11-30T03:24:01.944Z,100431.22
2022-11-30T03:28:04.923Z,100434.84
2022-11-30T03:32:08.002Z,100440.13
2022-11-30T03:36:13.409Z,100433.97
2022-11-30T03:40:16.690Z,100445.25
2022-11-30T03:44:20.205Z,100446.88
2022-11-30T03:48:23.634Z,100446.88
2022-11-30T03:52:28.000Z,100458.94
2022-11-30T03:56:31.003Z,100453.53
2022-11-30T04:00:33.940Z,100453.34
2022-11-30T04:04:37.220Z,100450.75
2022-11-30T04:08:42.885Z,100459.50
2022-11-30T04:12:45.898Z,100458.66
2022-11-30T04:16:48.822Z,100454.53
2022-11-30T04:20:52.281Z,100461.69
2022-11-30T04:24:56.943Z,100459.19
2022-11-30T04:29:04.149Z,100463.59
2022-11-30T04:33:07.689Z,100466.34
2022-11-30T04:37:10.620Z,100458.38
2022-11-30T04:41:15.065Z,100461.13
2022-11-30T04:45:18.258Z,100466.19
2022-11-30T04:49:21.216Z,100454.97
2022-11-30T04:53:24.192Z,100452.50
2022-11-30T04:57:28.568Z,100450.88
2022-11-30T05:01:32.070Z,100456.34
2022-11-30T05:05:35.138Z,100465.09
2022-11-30T05:09:38.073Z,100472.06
2022-11-30T05:13:42.395Z,100478.94
2022-11-30T05:17:45.454Z,100480.75
2022-11-30T05:21:48.413Z,100479.03
2022-11-30T05:25:51.635Z,100482.63
2022-11-30T05:29:56.003Z,100484.38
2022-11-30T05:33:59.257Z,100482.63
2022-11-30T05:38:02.543Z,100486.19
2022-11-30T05:42:06.097Z,100482.69
2022-11-30T05:46:11.549Z,100491.38
2022-11-30T05:50:14.665Z,100490.53
2022-11-30T05:54:18.250Z,100491.53
2022-11-30T05:58:21.299Z,100497.69
2022-11-30T06:02:28.390Z,100495.06
2022-11-30T06:06:31.672Z,100506.28
2022-11-30T06:10:34.689Z,100513.16
2022-11-30T06:14:37.959Z,100508.81
2022-11-30T06:18:42.539Z,100510.69
2022-11-30T06:22:47.676Z,100512.53
2022-11-30T06:26:50.790Z,100518.66
2022-11-30T06:30:53.802Z,100517.94
2022-11-30T06:34:58.210Z,100525.03
2022-11-30T06:39:01.279Z,100525.97
2022-11-30T06:43:04.319Z,100521.63
2022-11-30T06:47:07.316Z,100529.59
2022-11-30T06:51:12.053Z,100518.41
2022-11-30T06:55:15.331Z,100523.69
2022-11-30T06:59:18.396Z,100521.00
2022-11-30T07:03:21.394Z,100527.09
2022-11-30T07:07:25.951Z,100526.28
2022-11-30T07:11:28.955Z,100535.88
2022-11-30T07:15:32.008Z,100537.50
2022-11-30T07:19:35.320Z,100536.75
2022-11-30T07:23:57.334Z,100535.03
2022-11-30T07:28:00.421Z,100549.00
2022-11-30T07:32:03.633Z,100548.19
2022-11-30T07:36:07.276Z,100551.81
2022-11-30T07:40:12.539Z,100555.59
2022-11-30T07:44:15.627Z,100545.41
2022-11-30T07:48:18.662Z,100556.94
2022-11-30T07:52:21.731Z,100554.47
2022-11-30T07:56:27.414Z,100546.72
2022-11-30T08:00:30.448Z,100545.97
2022-11-30T08:04:33.583Z,100545.28
2022-11-30T08:08:38.679Z,100540.28
2022-11-30T08:12:43.325Z,100530.88
2022-11-30T08:16:46.387Z,100536.31
2022-11-30T08:20:50.234Z,100536.47
2022-11-30T08:24:53.572Z,100538.34
2022-11-30T08:28:59.526Z,100540.41
2022-11-30T08:33:02.569Z,100539.13
2022-11-30T08:37:05.700Z,100533.03
2022-11-30T08:41:09.736Z,100531.19
2022-11-30T08:45:14.421Z,100532.84
2022-11-30T08:49:22.552Z,100541.28
2022-11-30T08:53:26.378Z,100555.47
2022-11-30T08:57:29.588Z,100564.47
2022-11-30T09:01:34.008Z,100577.78
2022-11-30T09:05:37.061Z,100579.78
2022-11-30T09:09:40.275Z,100586.91
2022-11-30T09:13:44.842Z,100583.47
2022-11-30T09:17:49.214Z,100587.16
2022-11-30T09:21:52.749Z,100586.59
2022-11-30T09:25:57.519Z,100585.94
2022-11-30T09:30:00.622Z,100578.44
2022-11-30T09:34:05.129Z,100571.63
2022-11-30T09:38:08.112Z,100569.28
2022-11-30T09:42:42.892Z,100556.50
2022-11-30T09:46:52.191Z,100561.13
2022-11-30T09:51:01.317Z,100558.75
2022-11-30T09:55:10.393Z,100551.91
2022-11-30T09:59:20.542Z,100556.47
2022-11-30T10:03:24.787Z,100553.19
2022-11-30T10:07:46.255Z,100548.63
2022-11-30T10:12:01.275Z,100552.38
2022-11-30T10:16:16.161Z,100543.97
2022-11-30T10:20:35.464Z,100548.56
2022-11-30T10:24:55.772Z,100542.53
2022-11-30T10:29:03.230Z,100535.63
2022-11-30T10:33:15.378Z,100533.09
2022-11-30T10:37:23.150Z,100528.84
2022-11-30T10:41:33.112Z,100533.41
2022-11-30T10:45:42.038Z,100527.34
2022-11-30T10:49:49.459Z,100533.75
2022-11-30T10:53:52.468Z,100528.91
2022-11-30T10:58:01.770Z,100530.03
2022-11-30T11:02:24.885Z,100528.34
2022-11-30T11:06:27.971Z,100526.78
2022-11-30T11:10:35.601Z,100531.44
2022-11-30T11:14:39.924Z,100517.66
2022-11-30T11:18:54.023Z,100506.38
2022-11-30T11:22:57.496Z,100496.97
2022-11-30T11:27:00.829Z,100471.69
2022-11-30T11:31:19.115Z,100479.53
2022-11-30T11:35:38.126Z,100479.75
2022-11-30T11:39:41.192Z,100476.44
2022-11-30T11:44:01.264Z,100469.56
2022-11-30T11:48:08.544Z,100478.22
2022-11-30T11:52:18.906Z,100484.38
2022-11-30T11:56:28.322Z,100480.94
2022-11-30T12:00:32.430Z,100468.75
2022-11-30T12:04:46.688Z,100473.16
2022-11-30T12:08:54.041Z,100478.41
2022-11-30T12:12:57.174Z,100469.78
2022-11-30T12:17:19.031Z,100470.53
2022-11-30T12:21:34.147Z,100478.38
2022-11-30T12:25:43.118Z,100478.34
2022-11-30T12:29:52.357Z,100479.16
2022-11-30T12:34:08.783Z,100481.13
2022-11-30T12:38:27.232Z,100484.78
2022-11-30T12:42:38.727Z,100484.06
2022-11-30T12:46:50.764Z,100482.56
2022-11-30T12:51:09.010Z,100481.91
2022-11-30T12:55:28.329Z,100470.66
2022-11-30T12:59:42.383Z,100471.69
2022-11-30T13:03:59.129Z,100460.56
2022-11-30T13:08:09.003Z,100456.09
2022-11-30T13:12:17.916Z,100452.44
2022-11-30T13:16:23.781Z,100450.63
2022-11-30T13:20:34.799Z,100442.56
2022-11-30T13:24:42.890Z,100451.38
2022-11-30T13:29:08.628Z,100444.34
2022-11-30T13:33:38.851Z,100439.94
2022-11-30T13:37:41.907Z,100447.13
2022-11-30T13:41:46.844Z,100445.69
2022-11-30T13:46:02.895Z,100451.22
2022-11-30T13:50:09.795Z,100451.31
2022-11-30T13:54:38.449Z,100446.09
2022-11-30T13:59:20.224Z,100448.66
2022-11-30T14:03:29.966Z,100446.84
2022-11-30T14:07:37.926Z,100448.53
2022-11-30T14:11:45.721Z,100441.78
2022-11-30T14:15:59.995Z,100441.16
2022-11-30T14:20:16.524Z,100439.53
2022-11-30T14:24:24.058Z,100440.53
2022-11-30T14:28:39.954Z,100435.34
2022-11-30T14:32:45.882Z,100441.50
2022-11-30T14:36:54.101Z,100439.84
2022-11-30T14:40:57.253Z,100439.00
2022-11-30T14:45:00.649Z,100443.44
2022-11-30T14:49:12.389Z,100432.06
2022-11-30T14:53:26.865Z,100438.19
2022-11-30T14:57:37.532Z,100433.78
2022-11-30T15:01:41.070Z,100429.44
2022-11-30T15:05:44.876Z,100431.19
2022-11-30T15:09:52.476Z,100430.25
2022-11-30T15:13:57.372Z,100427.63
2022-11-30T15:18:09.332Z,100430.16
2022-11-30T15:22:22.519Z,100437.00
2022-11-30T15:26:32.125Z,100440.50
2022-11-30T15:30:39.426Z,100435.22
2022-11-30T15:34:52.220Z,100440.44
2022-11-30T15:38:58.621Z,100440.44
2022-11-30T15:43:03.622Z,100451.69
2022-11-30T15:47:08.542Z,100442.00
2022-11-30T15:51:26.232Z,100455.00
2022-11-30T15:55:42.997Z,100456.59
2022-11-30T16:00:06.091Z,100460.88
2022-11-30T16:04:09.052Z,100456.44
2022-11-30T16:08:17.640Z,100459.06
2022-11-30T16:12:28.456Z,100459.13
2022-11-30T16:16:33.955Z,100452.88
2022-11-30T16:20:37.013Z,100456.34
2022-11-30T16:24:40.240Z,100461.56
2022-11-30T16:28:43.392Z,100456.44
2022-11-30T16:32:48.297Z,100449.41
2022-11-30T16:36:51.278Z,100463.44
2022-11-30T16:40:55.727Z,100452.00
2022-11-30T16:44:58.797Z,100456.34
2022-11-30T16:49:03.376Z,100454.50
2022-11-30T16:53:06.986Z,100462.38
2022-11-30T16:57:10.162Z,100452.03
2022-11-30T17:01:18.896Z,100459.97
2022-11-30T17:05:23.914Z,100458.28
2022-11-30T17:09:29.862Z,100458.38
2022-11-30T17:13:32.922Z,100462.03
2022-11-30T17:17:35.920Z,100473.50
2022-11-30T17:21:42.213Z,100466.34
2022-11-30T17:25:47.189Z,100468.84
2022-11-30T17:29:50.407Z,100468.09
2022-11-30T17:33:53.485Z,100470.06
2022-11-30T17:37:57.967Z,100468.94
2022-11-30T17:42:01.317Z,100460.72
2022-11-30T17:46:06.492Z,100464.88
2022-11-30T17:50:10.926Z,100468.22
2022-11-30T17:54:15.489Z,100470.72
2022-11-30T17:58:18.490Z,100475.84
2022-11-30T18:02:21.569Z,100466.16
2022-11-30T18:06:25.026Z,100471.41
2022-11-30T18:10:29.637Z,100467.06
2022-11-30T18:14:32.641Z,100472.06
2022-11-30T18:18:35.670Z,100484.16
2022-11-30T18:22:38.872Z,100476.25
2022-11-30T18:26:43.266Z,100488.41
2022-11-30T18:30:46.476Z,100479.09
2022-11-30T18:34:50.302Z,100475.59
2022-11-30T18:38:53.776Z,100479.84
2022-11-30T18:42:58.128Z,100483.19
2022-11-30T18:47:01.456Z,100485.91
2022-11-30T18:51:11.632Z,100486.81
2022-11-30T18:55:14.697Z,100489.34
2022-11-30T18:59:19.288Z,100491.97
2022-11-30T19:03:22.355Z,100496.09
2022-11-30T19:12:05.899Z,100486.06
2022-11-30T19:16:12.564Z,100496.31
2022-11-30T19:20:15.943Z,100501.47
2022-11-30T19:24:18.949Z,100505.91
2022-11-30T19:28:22.034Z,100510.44
2022-11-30T19:32:26.383Z,100503.34
2022-11-30T19:36:31.435Z,100507.47
2022-11-30T19:40:34.506Z,100506.59
2022-11-30T19:44:37.774Z,100507.47
2022-11-30T19:48:46.648Z,100506.50
2022-11-30T19:52:50.128Z,100511.63
2022-11-30T19:56:54.501Z,100512.56
2022-11-30T20:00:57.791Z,100512.59
2022-11-30T20:05:02.433Z,100513.50
2022-11-30T20:09:06.943Z,100507.38
2022-11-30T20:13:10.005Z,100514.13
2022-11-30T20:17:13.255Z,100513.19
2022-11-30T20:21:19.802Z,100508.78
2022-11-30T20:25:22.908Z,100512.91
2022-11-30T20:29:26.332Z,100515.28
2022-11-30T20:33:29.475Z,100513.31
2022-11-30T20:37:34.411Z,100514.06
2022-11-30T20:41:37.856Z,100513.00
2022-11-30T20:45:40.950Z,100514.69
2022-11-30T20:49:44.439Z,100511.97
2022-11-30T20:53:49.029Z,100510.97
2022-11-30T20:57:52.234Z,100511.56
2022-11-30T21:01:56.799Z,100508.03
2022-11-30T21:05:59.881Z,100506.91
2022-11-30T21:10:04.928Z,100512.75
2022-11-30T21:14:08.230Z,100514.50
2022-11-30T21:18:12.748Z,100522.22
2022-11-30T21:22:15.732Z,100522.03
2022-11-30T21:26:22.686Z,100525.31
2022-11-30T21:30:25.872Z,100528.69
2022-11-30T21:34:28.928Z,100524.19
2022-11-30T21:38:32.157Z,100512.75
2022-11-30T21:42:36.612Z,100522.22
2022-11-30T21:46:40.029Z,100523.97
2022-11-30T21:50:43.005Z,100523.63
2022-11-30T21:54:48.881Z,100532.19
2022-11-30T21:58:54.248Z,100526.84
2022-11-30T22:02:57.527Z,100529.47
2022-11-30T22:07:00.526Z,100535.38
2022-11-30T22:11:05.283Z,100532.50
2022-11-30T22:15:11.201Z,100536.84
2022-11-30T22:19:14.874Z,100534.03
2022-11-30T22:23:17.902Z,100539.06
2022-11-30T22:27:20.961Z,100532.91
2022-11-30T22:31:28.207Z,100525.09
2022-11-30T22:35:31.224Z,100518.81
2022-11-30T22:39:34.249Z,100523.88
2022-11-30T22:43:37.576Z,100528.16
2022-11-30T22:47:41.939Z,100525.69
2022-11-30T22:51:45.429Z,100529.34
2022-11-30T22:55:48.586Z,100523.88
2022-11-30T22:59:51.874Z,100517.50
2022-11-30T23:03:58.531Z,100513.91
2022-11-30T23:08:01.684Z,100516.31
2022-11-30T23:12:05.107Z,100512.91
2022-11-30T23:16:09.285Z,100514.78
2022-11-30T23:20:14.824Z,100501.69
2022-11-30T23:24:20.643Z,100509.44
2022-11-30T23:28:23.722Z,100499.88
2022-11-30T23:32:26.727Z,100502.34
2022-11-30T23:36:31.064Z,100515.97
2022-11-30T23:40:34.144Z,100514.03
2022-11-30T23:44:37.094Z,100514.84
2022-11-30T23:48:40.327Z,100513.81
2022-11-30T23:52:44.877Z,100504.66
2022-11-30T23:56:48.568Z,100508.94
